Time;durP1;ratioP1;P1;durP2;ratioP2;P2;SDS_P1;SDS_P2;PMS_P1;PMS_P2;Temp;Humidity;BMP_temperature;BMP_pressure;BME280_temperature;BME280_humidity;BME280_pressure;Samples;Min_cycle;Max_cycle;Signal;HPM_P1;HPM_P2
2021/12/01 00:01:03;;;;;;;7.43;0.73;;;2.70;99.90;;;;;;4804947;29;20567;-89
2021/12/01 00:03:29;;;;;;;2.08;0.30;;;2.70;99.90;;;;;;4792971;29;20045;-90
2021/12/01 00:05:55;;;;;;;0.20;0.20;;;2.70;99.90;;;;;;4804792;29;20037;-89
2021/12/01 00:08:21;;;;;;;1.27;0.80;;;2.60;99.90;;;;;;4806284;29;20042;-89
2021/12/01 00:10:47;;;;;;;1.10;0.40;;;2.60;99.90;;;;;;4804576;29;20042;-90
2021/12/01 00:13:18;;;;;;;0.22;0.22;;;2.60;99.90;;;;;;4803334;29;20612;-90
2021/12/01 00:15:46;;;;;;;0.40;0.40;;;2.50;99.90;;;;;;4788263;29;20062;-89
2021/12/01 00:18:12;;;;;;;0.88;0.65;;;2.50;99.90;;;;;;4806837;29;20057;-90
2021/12/01 00:20:38;;;;;;;0.93;0.63;;;2.60;99.90;;;;;;4802520;29;20046;-90
2021/12/01 00:23:05;;;;;;;0.82;0.60;;;2.60;99.90;;;;;;4807416;29;20062;-89
2021/12/01 00:25:36;;;;;;;0.20;0.20;;;2.60;99.90;;;;;;4803948;29;20284;-90
2021/12/01 00:28:05;;;;;;;0.55;0.38;;;2.60;99.90;;;;;;4787738;29;20193;-89
2021/12/01 00:30:31;;;;;;;1.05;0.32;;;2.50;99.90;;;;;;4802743;29;20046;-89
2021/12/01 00:32:57;;;;;;;0.20;0.20;;;2.50;99.90;;;;;;4804761;29;20081;-89
2021/12/01 00:35:23;;;;;;;0.22;0.20;;;2.50;99.90;;;;;;4805650;29;20145;-89
2021/12/01 00:37:49;;;;;;;0.38;0.28;;;2.40;99.90;;;;;;4806286;29;20042;-89
2021/12/01 00:40:16;;;;;;;0.45;0.40;;;2.50;99.90;;;;;;4801147;29;20697;-89
2021/12/01 00:42:44;;;;;;;0.77;0.70;;;2.50;99.90;;;;;;4792461;29;20078;-89
2021/12/01 00:45:18;;;;;;;2.67;0.25;;;2.50;99.90;;;;;;4787846;29;20046;-89
2021/12/01 00:47:52;;;;;;;1.00;0.70;;;2.50;99.90;;;;;;4809019;29;20041;-89
2021/12/01 00:50:31;;;;;;;0.68;0.35;;;2.60;99.90;;;;;;4819179;29;20057;-90
2021/12/01 00:53:00;;;;;;;0.30;0.30;;;2.60;99.90;;;;;;4813478;29;20486;-89
2021/12/01 00:55:26;;;;;;;2.15;0.40;;;2.60;99.90;;;;;;4814472;29;20394;-90
2021/12/01 00:57:52;;;;;;;0.25;0.25;;;2.60;99.90;;;;;;4817431;29;20026;-89
2021/12/01 01:00:20;;;;;;;0.17;0.17;;;2.60;99.90;;;;;;4819343;29;20429;-89
2021/12/01 01:02:47;;;;;;;0.32;0.22;;;2.60;99.90;;;;;;4797754;29;20575;-90
2021/12/01 01:05:13;;;;;;;0.60;0.43;;;2.60;99.90;;;;;;4797660;29;20287;-89
2021/12/01 01:07:39;;;;;;;2.85;0.50;;;2.60;99.90;;;;;;4802206;29;20041;-90
2021/12/01 01:10:18;;;;;;;2.17;1.35;;;2.60;99.90;;;;;;4816308;29;20046;-90
2021/12/01 01:18:16;;;;;;;0.45;0.30;;;2.50;99.90;;;;;;4821458;29;20474;-90
2021/12/01 01:20:42;;;;;;;0.90;0.50;;;2.60;99.90;;;;;;4822174;29;20039;-90
2021/12/01 01:23:07;;;;;;;0.38;0.30;;;2.60;99.90;;;;;;4792893;29;20133;-89
2021/12/01 01:25:33;;;;;;;1.98;1.05;;;2.60;99.90;;;;;;4808336;29;20042;-90
2021/12/01 01:27:59;;;;;;;4.15;1.10;;;2.70;99.90;;;;;;4791417;29;20091;-89
2021/12/01 01:30:25;;;;;;;0.75;0.60;;;2.70;99.90;;;;;;4792071;29;20049;-90
2021/12/01 01:32:52;;;;;;;4.68;1.08;;;2.70;99.90;;;;;;4816682;29;20106;-90
2021/12/01 01:35:18;;;;;;;0.30;0.25;;;2.70;99.90;;;;;;4821683;29;20675;-90
2021/12/01 01:37:45;;;;;;;0.40;0.30;;;2.70;99.90;;;;;;4802217;29;20041;-89
2021/12/01 01:40:11;;;;;;;1.20;0.60;;;2.70;99.90;;;;;;4819670;29;20799;-90
2021/12/01 01:42:37;;;;;;;0.47;0.40;;;2.80;99.90;;;;;;4808898;29;20102;-90
2021/12/01 01:45:05;;;;;;;0.60;0.40;;;2.70;99.90;;;;;;4819566;29;20034;-90
2021/12/01 01:47:30;;;;;;;;;;;2.70;99.90;;;;;;4800061;29;20674;-90
2021/12/01 01:50:21;;;;;;;0.20;0.20;;;2.70;99.90;;;;;;4820293;29;19920;-89
2021/12/01 01:52:47;;;;;;;0.35;0.30;;;2.70;99.90;;;;;;4819876;29;20091;-89
2021/12/01 01:55:12;;;;;;;0.43;0.30;;;2.80;99.90;;;;;;4817796;29;20043;-90
2021/12/01 01:57:44;;;;;;;0.55;0.38;;;2.70;99.90;;;;;;4817103;29;20034;-90
2021/12/01 02:00:10;;;;;;;1.13;0.77;;;2.80;99.90;;;;;;4819008;29;20042;-89
2021/12/01 02:02:36;;;;;;;0.53;0.27;;;2.70;99.90;;;;;;4819084;29;20130;-90
2021/12/01 02:05:02;;;;;;;0.50;0.30;;;2.70;99.90;;;;;;4797737;29;20066;-89
2021/12/01 02:07:29;;;;;;;1.00;0.47;;;2.70;99.90;;;;;;4794370;29;20411;-89
2021/12/01 02:09:55;;;;;;;0.20;0.20;;;2.70;99.90;;;;;;4792515;29;20470;-90
2021/12/01 02:12:21;;;;;;;0.77;0.52;;;2.80;99.90;;;;;;4806676;29;20042;-90
2021/12/01 02:14:47;;;;;;;1.23;0.50;;;2.80;99.90;;;;;;4808005;29;20510;-89
2021/12/01 02:17:13;;;;;;;2.85;0.90;;;2.80;99.90;;;;;;4798630;29;20049;-89
2021/12/01 02:19:39;;;;;;;0.20;0.20;;;2.80;99.90;;;;;;4817420;29;20065;-90
2021/12/01 02:22:05;;;;;;;0.50;0.25;;;2.80;99.90;;;;;;4801711;29;20119;-91
2021/12/01 02:24:31;;;;;;;1.00;0.40;;;2.80;99.90;;;;;;4801182;29;20052;-90
2021/12/01 02:26:56;;;;;;;0.43;0.38;;;2.90;99.90;;;;;;4800720;29;20058;-90
2021/12/01 02:29:25;;;;;;;0.68;0.30;;;2.90;99.90;;;;;;4800821;29;20114;-89
2021/12/01 02:31:52;;;;;;;1.15;0.70;;;2.90;99.90;;;;;;4799487;29;20050;-90
2021/12/01 02:34:23;;;;;;;2.72;0.47;;;2.90;99.90;;;;;;4790256;29;20142;-89
2021/12/01 02:37:03;;;;;;;1.85;0.47;;;2.80;99.90;;;;;;4801405;29;20510;-89
2021/12/01 02:39:28;;;;;;;0.30;0.20;;;2.90;99.90;;;;;;4785057;29;20439;-90
2021/12/01 02:41:58;;;;;;;0.30;0.30;;;2.90;99.90;;;;;;4782418;29;20198;-89
2021/12/01 02:44:25;;;;;;;2.28;0.63;;;2.90;99.90;;;;;;4753090;29;20066;-89
2021/12/01 02:46:51;;;;;;;0.32;0.32;;;3.00;99.90;;;;;;4787329;29;20515;-89
2021/12/01 02:49:24;;;;;;;0.50;0.30;;;3.00;99.90;;;;;;4800589;29;20038;-89
2021/12/01 02:51:54;;;;;;;1.33;0.77;;;3.00;99.90;;;;;;4796520;29;20562;-89
2021/12/01 02:54:20;;;;;;;1.83;0.20;;;3.00;99.90;;;;;;4800553;29;20122;-90
2021/12/01 02:56:48;;;;;;;0.50;0.38;;;2.90;99.90;;;;;;4784198;29;20081;-89
2021/12/01 02:59:14;;;;;;;;;;;3.00;99.90;;;;;;4801237;29;20129;-89
2021/12/01 03:01:40;;;;;;;0.13;0.13;;;3.00;99.90;;;;;;4782211;29;20005;-89
2021/12/01 03:04:07;;;;;;;0.47;0.38;;;3.00;99.90;;;;;;4781380;29;20054;-90
2021/12/01 03:06:36;;;;;;;3.10;0.70;;;3.00;99.90;;;;;;4798346;29;20046;-89
2021/12/01 03:09:06;;;;;;;1.45;0.60;;;3.10;99.90;;;;;;4801683;29;20035;-89
2021/12/01 03:11:32;;;;;;;0.63;0.43;;;3.10;99.90;;;;;;4784747;29;20065;-89
2021/12/01 03:13:58;;;;;;;1.45;0.55;;;3.10;99.90;;;;;;4783050;29;20522;-89
2021/12/01 03:16:24;;;;;;;1.55;0.85;;;3.10;99.90;;;;;;4795568;29;20038;-89
2021/12/01 03:18:51;;;;;;;0.98;0.63;;;3.10;99.90;;;;;;4784614;29;20583;-89
2021/12/01 03:21:16;;;;;;;0.98;0.45;;;3.10;99.90;;;;;;4784260;29;20042;-89
2021/12/01 03:23:43;;;;;;;1.08;0.75;;;3.10;99.90;;;;;;4784025;29;20452;-89
2021/12/01 03:26:11;;;;;;;0.95;0.55;;;3.20;99.90;;;;;;4796076;29;20038;-89
2021/12/01 03:28:37;;;;;;;0.60;0.28;;;3.20;99.90;;;;;;4800539;29;20035;-89
2021/12/01 03:31:04;;;;;;;6.65;1.13;;;3.20;99.90;;;;;;4775748;29;20132;-89
2021/12/01 03:33:30;;;;;;;3.65;0.40;;;3.20;99.90;;;;;;4781705;29;20042;-91
2021/12/01 03:35:55;;;;;;;3.50;0.68;;;3.20;99.90;;;;;;4785545;29;20042;-89
2021/12/01 03:38:25;;;;;;;4.78;0.60;;;3.20;99.90;;;;;;4802232;29;20043;-89
2021/12/01 03:40:51;;;;;;;0.28;0.20;;;3.20;99.90;;;;;;4777518;29;20184;-88
2021/12/01 03:43:17;;;;;;;1.40;0.38;;;3.30;99.90;;;;;;4799142;29;20126;-89
2021/12/01 03:45:43;;;;;;;1.38;0.88;;;3.30;99.90;;;;;;4781999;29;20133;-89
2021/12/01 03:48:09;;;;;;;2.55;0.38;;;3.30;99.90;;;;;;4781045;29;20109;-89
2021/12/01 03:50:37;;;;;;;0.50;0.30;;;3.30;99.90;;;;;;4797284;29;20567;-89
2021/12/01 03:53:03;;;;;;;;;;;3.30;99.90;;;;;;4795713;29;20116;-89
2021/12/01 03:55:39;;;;;;;1.60;0.82;;;3.30;99.90;;;;;;4784025;29;19920;-89
2021/12/01 03:58:05;;;;;;;0.20;0.20;;;3.30;99.90;;;;;;4798085;29;20556;-89
2021/12/01 04:00:31;;;;;;;0.20;0.20;;;3.30;99.90;;;;;;4791644;29;20054;-89
2021/12/01 04:02:57;;;;;;;1.45;0.70;;;3.30;99.90;;;;;;4797014;29;20083;-89
2021/12/01 04:05:22;;;;;;;1.10;1.00;;;3.30;99.90;;;;;;4760846;29;20038;-89
2021/12/01 04:07:51;;;;;;;0.57;0.40;;;3.40;99.90;;;;;;4796366;29;20035;-89
2021/12/01 04:10:18;;;;;;;1.40;0.60;;;3.30;99.90;;;;;;4793051;29;20062;-89
2021/12/01 04:12:45;;;;;;;1.55;0.60;;;3.30;99.90;;;;;;4781340;29;20045;-87
2021/12/01 04:15:13;;;;;;;1.08;0.63;;;3.40;99.90;;;;;;4799182;29;20043;-88
2021/12/01 04:17:39;;;;;;;;;;;3.40;99.90;;;;;;4797261;29;20495;-87
2021/12/01 04:20:05;;;;;;;1.38;0.40;;;3.40;99.90;;;;;;4782165;29;19981;-88
2021/12/01 04:22:31;;;;;;;0.88;0.38;;;3.40;99.90;;;;;;4794220;29;20149;-87
2021/12/01 04:24:57;;;;;;;0.65;0.50;;;3.40;99.90;;;;;;4815700;29;20698;-88
2021/12/01 04:27:22;;;;;;;1.52;0.75;;;3.40;99.90;;;;;;4813427;29;20061;-89
2021/12/01 04:29:51;;;;;;;0.28;0.28;;;3.40;99.90;;;;;;4815715;29;20037;-89
2021/12/01 04:32:16;;;;;;;0.95;0.60;;;3.40;99.90;;;;;;4816005;29;20042;-88
2021/12/01 04:34:42;;;;;;;0.60;0.40;;;3.40;99.90;;;;;;4814373;29;20042;-88
2021/12/01 04:37:08;;;;;;;0.93;0.55;;;3.40;99.90;;;;;;4805525;29;20038;-88
2021/12/01 04:39:37;;;;;;;0.30;0.30;;;3.40;99.90;;;;;;4817486;29;20046;-89
2021/12/01 04:42:06;;;;;;;1.58;0.80;;;3.40;99.90;;;;;;4816692;29;20900;-89
2021/12/01 04:44:36;;;;;;;2.22;0.98;;;3.30;99.90;;;;;;4812224;29;20039;-87
2021/12/01 04:47:06;;;;;;;0.93;0.50;;;3.40;99.90;;;;;;4795745;29;20434;-86
2021/12/01 04:49:34;;;;;;;0.50;0.30;;;3.30;99.90;;;;;;4816823;29;20452;-88
2021/12/01 04:52:00;;;;;;;0.80;0.80;;;3.30;99.90;;;;;;4820836;29;20503;-87
2021/12/01 04:54:27;;;;;;;1.67;0.45;;;3.30;99.90;;;;;;4814591;29;20042;-88
2021/12/01 04:56:54;;;;;;;0.28;0.28;;;3.30;99.90;;;;;;4816804;29;20350;-88
2021/12/01 04:59:21;;;;;;;1.55;0.73;;;3.30;99.90;;;;;;4817761;29;20076;-86
2021/12/01 05:01:50;;;;;;;0.93;0.52;;;3.30;99.90;;;;;;4816673;29;20042;-86
2021/12/01 05:04:19;;;;;;;0.28;0.22;;;3.30;99.90;;;;;;4804696;29;20046;-86
2021/12/01 05:06:44;;;;;;;0.57;0.38;;;3.30;99.90;;;;;;4817795;29;20072;-86
2021/12/01 05:09:10;;;;;;;1.63;0.93;;;3.40;99.90;;;;;;4804680;29;20447;-85
2021/12/01 05:11:36;;;;;;;0.30;0.28;;;3.40;99.90;;;;;;4812945;29;20042;-85
2021/12/01 05:14:02;;;;;;;0.70;0.47;;;3.40;99.90;;;;;;4818827;29;20038;-85
2021/12/01 05:16:28;;;;;;;0.20;0.20;;;3.40;99.90;;;;;;4816993;29;20721;-85
2021/12/01 05:18:54;;;;;;;0.20;0.20;;;3.40;99.90;;;;;;4818460;29;20095;-85
2021/12/01 05:21:20;;;;;;;0.73;0.47;;;3.40;99.90;;;;;;4822965;29;20081;-85
2021/12/01 05:23:49;;;;;;;2.65;0.40;;;3.40;99.90;;;;;;4821078;29;20129;-84
2021/12/01 05:26:15;;;;;;;0.82;0.30;;;3.40;99.90;;;;;;4820077;29;20491;-85
2021/12/01 05:28:41;;;;;;;0.55;0.40;;;3.40;99.90;;;;;;4806440;29;20045;-84
2021/12/01 05:31:08;;;;;;;0.50;0.30;;;3.40;99.90;;;;;;4802592;29;20080;-87
2021/12/01 05:33:34;;;;;;;0.67;0.47;;;3.40;99.90;;;;;;4792076;29;20073;-85
2021/12/01 05:36:00;;;;;;;0.50;0.40;;;3.40;99.90;;;;;;4789013;29;20502;-86
2021/12/01 05:38:26;;;;;;;0.40;0.35;;;3.40;99.90;;;;;;4811117;29;20043;-87
2021/12/01 05:40:57;;;;;;;2.17;0.63;;;3.50;99.90;;;;;;4773663;29;20042;-88
2021/12/01 05:43:25;;;;;;;0.38;0.30;;;3.50;99.90;;;;;;4766537;29;20038;-88
2021/12/01 05:45:51;;;;;;;0.40;0.32;;;3.50;99.90;;;;;;4791341;29;20409;-88
2021/12/01 05:48:22;;;;;;;0.85;0.57;;;3.60;99.90;;;;;;4777275;29;20050;-89
2021/12/01 05:50:47;;;;;;;0.30;0.25;;;3.60;99.90;;;;;;4776169;29;20031;-89
2021/12/01 05:53:17;;;;;;;2.45;0.40;;;3.60;99.90;;;;;;4787392;29;20527;-88
2021/12/01 05:55:48;;;;;;;0.30;0.30;;;3.60;99.90;;;;;;4807302;29;20392;-88
2021/12/01 05:58:19;;;;;;;1.27;0.50;;;3.70;99.90;;;;;;4799607;29;20046;-88
2021/12/01 06:00:45;;;;;;;0.82;0.45;;;3.70;99.90;;;;;;4819992;29;20042;-88
2021/12/01 06:03:13;;;;;;;0.20;0.20;;;3.70;99.90;;;;;;4810091;29;20063;-88
2021/12/01 06:05:39;;;;;;;0.38;0.30;;;3.70;99.90;;;;;;4819571;29;20072;-88
2021/12/01 06:08:08;;;;;;;2.92;0.95;;;3.70;99.90;;;;;;4818551;29;20053;-88
2021/12/01 06:10:37;;;;;;;0.38;0.25;;;3.70;99.90;;;;;;4820063;29;20041;-89
2021/12/01 06:13:04;;;;;;;1.40;0.63;;;3.70;99.90;;;;;;4822546;29;20030;-89
2021/12/01 06:15:50;;;;;;;0.38;0.30;;;3.70;99.90;;;;;;4821690;29;20122;-90
2021/12/01 06:18:19;;;;;;;0.68;0.32;;;3.70;99.90;;;;;;4814493;29;20065;-91
2021/12/01 06:20:45;;;;;;;0.75;0.50;;;3.70;99.90;;;;;;4820327;29;20533;-90
2021/12/01 06:23:12;;;;;;;0.50;0.40;;;3.70;99.90;;;;;;4805939;29;20066;-90
2021/12/01 06:25:38;;;;;;;0.93;0.52;;;3.80;99.90;;;;;;4807333;29;20679;-90
2021/12/01 06:28:06;;;;;;;0.65;0.40;;;3.80;99.90;;;;;;4821020;29;20034;-91
2021/12/01 06:30:35;;;;;;;1.67;0.75;;;3.80;99.90;;;;;;4784540;29;20478;-92
2021/12/01 06:33:01;;;;;;;0.35;0.30;;;3.80;99.90;;;;;;4797416;29;20034;-90
2021/12/01 06:35:52;;;;;;;1.33;0.60;;;3.80;99.90;;;;;;4821626;29;20103;-92
2021/12/01 06:38:19;;;;;;;0.32;0.32;;;3.80;99.90;;;;;;4792306;29;20038;-86
2021/12/01 06:40:47;;;;;;;0.75;0.40;;;3.90;99.90;;;;;;4816067;29;20034;-87
2021/12/01 06:43:13;;;;;;;0.68;0.50;;;3.90;99.90;;;;;;4822063;29;20049;-88
2021/12/01 06:45:39;;;;;;;4.43;0.50;;;3.90;99.90;;;;;;4819896;29;20114;-88
2021/12/01 06:48:09;;;;;;;0.95;0.60;;;3.90;99.90;;;;;;4821568;29;20038;-88
2021/12/01 06:50:34;;;;;;;1.63;0.88;;;3.90;99.90;;;;;;4820573;29;20268;-88
2021/12/01 06:53:04;;;;;;;0.73;0.52;;;3.90;99.90;;;;;;4820442;29;20118;-89
2021/12/01 06:55:30;;;;;;;0.50;0.40;;;4.00;99.90;;;;;;4819012;29;20042;-87
2021/12/01 06:57:56;;;;;;;0.43;0.32;;;4.00;99.90;;;;;;4809876;29;20062;-88
2021/12/01 07:00:25;;;;;;;0.30;0.25;;;4.00;99.90;;;;;;4805733;29;20058;-92
2021/12/01 07:03:11;;;;;;;;;;;;;;;;;;;;;
2021/12/01 07:05:38;;;;;;;0.82;0.55;;;4.00;99.90;;;;;;4805742;29;20472;-90
2021/12/01 07:08:05;;;;;;;0.40;0.35;;;4.10;99.90;;;;;;4801474;29;20037;-93
2021/12/01 07:10:33;;;;;;;0.38;0.28;;;4.10;99.90;;;;;;4764335;29;20035;-92
2021/12/01 07:13:04;;;;;;;2.28;0.70;;;4.20;99.90;;;;;;4798954;29;20035;-91
2021/12/01 07:15:55;;;;;;;2.20;0.82;;;4.20;99.90;;;;;;4794213;29;20123;-90
2021/12/01 07:18:31;;;;;;;;;;;;;;;;;;;;;
2021/12/01 07:21:05;;;;;;;1.00;0.40;;;4.30;99.90;;;;;;4789157;29;20046;-91
2021/12/01 07:23:31;;;;;;;1.58;0.90;;;4.30;99.90;;;;;;4738087;29;20436;-92
2021/12/01 07:26:07;;;;;;;0.82;0.75;;;4.40;99.90;;;;;;4757212;29;20036;-92
2021/12/01 07:28:34;;;;;;;1.42;0.60;;;4.50;99.90;;;;;;4774396;29;20042;-92
2021/12/01 07:31:00;;;;;;;1.75;0.50;;;4.50;99.90;;;;;;4762236;29;20050;-91
2021/12/01 07:33:33;;;;;;;1.08;0.55;;;4.50;99.90;;;;;;4717543;29;20081;-93
2021/12/01 07:35:59;;;;;;;3.03;1.73;;;4.60;99.90;;;;;;4757404;29;20194;-92
2021/12/01 07:38:27;;;;;;;1.10;0.70;;;4.70;99.90;;;;;;4769607;29;20535;-93
2021/12/01 07:40:53;;;;;;;1.17;0.75;;;4.80;99.90;;;;;;4786754;29;20045;-92
2021/12/01 07:43:39;;;;;;;0.60;0.40;;;4.90;99.90;;;;;;4765357;29;20030;-91
2021/12/01 07:46:10;;;;;;;1.95;0.60;;;4.90;99.90;;;;;;4752202;29;20590;-93
2021/12/01 07:48:39;;;;;;;1.23;0.80;;;5.00;99.90;;;;;;4756224;29;20044;-92
2021/12/01 07:51:15;;;;;;;0.43;0.40;;;5.10;99.90;;;;;;4731484;29;20075;-93
2021/12/01 07:53:41;;;;;;;0.60;0.43;;;5.20;99.90;;;;;;4797946;29;20118;-92
2021/12/01 07:56:20;;;;;;;0.80;0.43;;;5.20;99.90;;;;;;4789287;29;20067;-92
2021/12/01 07:58:47;;;;;;;1.65;0.68;;;5.30;99.90;;;;;;4776682;29;20303;-91
2021/12/01 08:01:57;;;;;;;1.17;0.47;;;5.30;99.90;;;;;;4778716;29;20569;-93
2021/12/01 08:04:35;;;;;;;0.63;0.50;;;5.40;99.90;;;;;;4790100;29;20034;-93
2021/12/01 08:07:11;;;;;;;1.50;0.93;;;5.40;99.90;;;;;;4781825;29;20031;-92
2021/12/01 08:10:00;;;;;;;0.88;0.50;;;5.50;99.90;;;;;;4764776;29;20046;-93
2021/12/01 08:12:26;;;;;;;1.65;1.00;;;5.50;99.90;;;;;;4776934;29;20045;-91
2021/12/01 08:14:55;;;;;;;2.15;1.00;;;5.60;99.90;;;;;;4769857;29;20039;-92
2021/12/01 08:17:35;;;;;;;1.48;0.63;;;5.60;99.90;;;;;;4759027;29;20126;-93
2021/12/01 08:20:05;;;;;;;1.52;0.88;;;5.60;99.90;;;;;;4752352;29;20591;-90
2021/12/01 08:22:39;;;;;;;1.00;0.73;;;5.70;99.90;;;;;;4759520;29;20059;-93
2021/12/01 08:25:05;;;;;;;1.25;0.60;;;5.70;99.90;;;;;;4796571;29;20523;-92
2021/12/01 08:27:39;;;;;;;1.88;1.00;;;5.70;99.90;;;;;;4777501;29;20498;-92
2021/12/01 08:30:08;;;;;;;1.50;0.80;;;5.80;99.90;;;;;;4775033;29;20038;-91
2021/12/01 08:32:56;;;;;;;1.75;0.93;;;5.80;99.90;;;;;;4772839;29;20042;-93
2021/12/01 08:35:25;;;;;;;1.48;0.85;;;5.80;99.90;;;;;;4738218;29;20454;-93
2021/12/01 08:38:00;;;;;;;0.70;0.40;;;5.80;99.90;;;;;;4774415;29;20034;-92
2021/12/01 08:40:32;;;;;;;2.58;0.80;;;5.80;99.90;;;;;;4786911;29;20048;-92
2021/12/01 08:43:00;;;;;;;2.30;0.90;;;5.80;99.90;;;;;;4792742;29;20083;-94
2021/12/01 08:45:33;;;;;;;1.13;0.57;;;5.90;99.90;;;;;;4781236;29;20042;-92
2021/12/01 08:48:03;;;;;;;1.35;0.75;;;5.90;99.90;;;;;;4773439;29;20099;-92
2021/12/01 08:53:25;;;;;;;0.82;0.47;;;5.90;99.90;;;;;;4802127;29;20059;-92
2021/12/01 08:55:51;;;;;;;1.73;0.80;;;5.90;99.90;;;;;;4803926;29;20053;-92
2021/12/01 08:58:19;;;;;;;1.65;0.52;;;5.90;99.90;;;;;;4792234;29;20559;-91
2021/12/01 09:00:51;;;;;;;1.05;0.60;;;6.00;99.90;;;;;;4791320;29;20402;-91
2021/12/01 09:03:18;;;;;;;1.33;0.85;;;6.00;99.90;;;;;;4810308;29;20049;-90
2021/12/01 09:05:47;;;;;;;1.43;0.80;;;6.00;99.90;;;;;;4808231;29;20384;-90
2021/12/01 09:08:17;;;;;;;1.88;1.27;;;6.00;99.90;;;;;;4791816;29;20038;-92
2021/12/01 09:10:52;;;;;;;0.63;0.40;;;6.00;99.90;;;;;;4766361;29;20036;-91
2021/12/01 09:13:24;;;;;;;2.17;0.65;;;6.00;99.90;;;;;;4786931;29;20511;-91
2021/12/01 09:15:53;;;;;;;1.30;0.70;;;6.00;99.90;;;;;;4793106;29;20062;-90
2021/12/01 09:18:20;;;;;;;1.13;0.60;;;6.00;99.90;;;;;;4814619;29;20042;-91
2021/12/01 09:20:49;;;;;;;;;;;6.00;99.90;;;;;;4808988;29;20039;-90
2021/12/01 09:23:15;;;;;;;0.90;0.57;;;6.00;99.90;;;;;;4820032;29;20444;-91
2021/12/01 09:25:40;;;;;;;0.60;0.40;;;6.00;99.90;;;;;;4790919;29;20525;-90
2021/12/01 09:28:06;;;;;;;1.15;0.82;;;6.00;99.90;;;;;;4817559;29;20064;-91
2021/12/01 09:30:43;;;;;;;1.17;0.70;;;6.00;99.90;;;;;;4781281;29;20038;-92
2021/12/01 09:33:12;;;;;;;0.77;0.40;;;6.00;99.90;;;;;;4787273;29;20574;-93
2021/12/01 09:35:39;;;;;;;0.70;0.47;;;6.00;99.90;;;;;;4815952;29;20044;-91
2021/12/01 09:38:05;;;;;;;0.30;0.20;;;6.00;99.90;;;;;;4803177;29;20038;-92
2021/12/01 09:40:43;;;;;;;0.22;0.20;;;6.10;99.90;;;;;;4783488;29;20041;-91
2021/12/01 09:43:09;;;;;;;0.85;0.40;;;6.10;99.90;;;;;;4802955;29;20051;-89
2021/12/01 09:45:37;;;;;;;0.85;0.35;;;6.10;99.90;;;;;;4815922;29;20047;-90
2021/12/01 09:48:04;;;;;;;0.20;0.20;;;6.10;99.90;;;;;;4773017;29;20129;-91
2021/12/01 09:50:36;;;;;;;0.85;0.32;;;6.10;99.90;;;;;;4788866;29;20031;-92
2021/12/01 09:53:03;;;;;;;0.73;0.45;;;6.10;99.90;;;;;;4793318;29;20035;-91
2021/12/01 09:55:35;;;;;;;0.77;0.40;;;6.10;99.90;;;;;;4801342;29;20188;-91
2021/12/01 09:58:10;;;;;;;1.48;0.75;;;6.10;99.90;;;;;;4812512;29;20037;-91
2021/12/01 10:00:39;;;;;;;1.95;1.30;;;6.10;99.90;;;;;;4786701;29;20588;-92
2021/12/01 10:03:06;;;;;;;1.00;0.63;;;6.10;99.90;;;;;;4815886;29;21463;-91
2021/12/01 10:05:51;;;;;;;1.00;0.63;;;6.20;99.90;;;;;;4799413;29;20490;-91
2021/12/01 10:08:26;;;;;;;1.42;0.50;;;6.20;99.90;;;;;;4799359;29;20052;-92
2021/12/01 10:11:02;;;;;;;2.13;0.60;;;6.20;99.90;;;;;;4805664;29;20415;-93
2021/12/01 10:13:31;;;;;;;0.98;0.50;;;6.20;99.90;;;;;;4821026;29;20042;-91
2021/12/01 10:16:01;;;;;;;0.90;0.43;;;6.20;99.90;;;;;;4807919;29;20046;-91
2021/12/01 10:18:49;;;;;;;1.08;0.50;;;6.20;99.90;;;;;;4782633;29;20062;-91
2021/12/01 10:21:42;;;;;;;0.93;0.50;;;6.20;99.90;;;;;;4798607;29;20534;-92
2021/12/01 10:24:21;;;;;;;0.80;0.55;;;6.20;99.90;;;;;;4804422;29;20222;-91
2021/12/01 10:27:01;;;;;;;1.17;0.80;;;6.20;99.90;;;;;;4814563;29;20529;-90
2021/12/01 10:29:44;;;;;;;0.85;0.45;;;6.20;99.90;;;;;;4822070;29;20096;-92
2021/12/01 10:32:15;;;;;;;0.93;0.60;;;6.20;99.90;;;;;;4794304;29;20540;-92
2021/12/01 10:34:46;;;;;;;1.08;0.40;;;6.20;99.90;;;;;;4791224;29;20055;-92
2021/12/01 10:37:31;;;;;;;0.82;0.45;;;6.30;99.90;;;;;;4811687;29;20315;-91
2021/12/01 10:40:12;;;;;;;0.77;0.38;;;6.30;99.90;;;;;;4803389;29;20038;-91
2021/12/01 10:42:59;;;;;;;0.75;0.32;;;6.30;99.90;;;;;;4799236;29;20034;-91
2021/12/01 10:45:27;;;;;;;0.98;0.75;;;6.30;99.90;;;;;;4815126;29;20043;-92
2021/12/01 10:47:53;;;;;;;1.15;0.75;;;6.30;99.90;;;;;;4819213;29;20030;-90
2021/12/01 10:50:23;;;;;;;1.30;0.55;;;6.30;99.90;;;;;;4791550;29;20062;-91
2021/12/01 10:52:52;;;;;;;0.98;0.40;;;6.30;99.90;;;;;;4819205;29;20037;-91
2021/12/01 10:55:25;;;;;;;1.70;0.75;;;6.30;99.90;;;;;;4821911;29;20042;-91
2021/12/01 10:58:01;;;;;;;1.10;0.57;;;6.30;99.90;;;;;;4811149;29;20675;-91
2021/12/01 11:00:39;;;;;;;0.30;0.22;;;6.30;99.90;;;;;;4797399;29;20499;-92
2021/12/01 11:03:07;;;;;;;2.30;0.70;;;6.30;99.90;;;;;;4817539;29;20046;-90
2021/12/01 11:05:46;;;;;;;0.77;0.32;;;6.20;99.90;;;;;;4811323;29;20049;-90
2021/12/01 11:08:17;;;;;;;1.50;0.70;;;6.20;99.90;;;;;;4805085;29;20641;-92
2021/12/01 11:10:45;;;;;;;1.17;0.43;;;6.20;99.90;;;;;;4790653;29;20045;-91
2021/12/01 11:13:12;;;;;;;0.82;0.50;;;6.20;99.90;;;;;;4802988;29;20168;-90
2021/12/01 11:15:44;;;;;;;0.88;0.45;;;6.20;99.90;;;;;;4807833;29;20030;-90
2021/12/01 11:18:21;;;;;;;0.77;0.40;;;6.20;99.90;;;;;;4805537;29;20335;-90
2021/12/01 11:20:54;;;;;;;1.02;0.43;;;6.20;99.90;;;;;;4796189;29;20038;-90
2021/12/01 11:23:31;;;;;;;0.40;0.22;;;6.20;99.90;;;;;;4795284;29;20047;-91
2021/12/01 11:26:07;;;;;;;1.50;0.40;;;6.20;99.90;;;;;;4768342;29;20038;-91
2021/12/01 11:29:01;;;;;;;0.73;0.40;;;6.20;99.90;;;;;;4754784;29;20423;-92
2021/12/01 11:31:38;;;;;;;0.98;0.50;;;6.20;99.90;;;;;;4762761;29;20043;-92
2021/12/01 11:34:16;;;;;;;1.73;0.68;;;6.20;99.90;;;;;;4754873;29;20113;-89
2021/12/01 11:36:54;;;;;;;0.75;0.40;;;6.30;99.90;;;;;;4796057;29;20058;-90
2021/12/01 11:39:25;;;;;;;0.63;0.35;;;6.30;99.90;;;;;;4789347;29;20037;-89
2021/12/01 11:41:56;;;;;;;0.70;0.47;;;6.30;99.90;;;;;;4794416;29;20441;-92
2021/12/01 11:44:25;;;;;;;0.60;0.40;;;6.30;99.90;;;;;;4781746;29;20574;-92
2021/12/01 11:46:52;;;;;;;0.82;0.47;;;6.30;99.90;;;;;;4801345;29;20393;-92
2021/12/01 11:49:24;;;;;;;0.63;0.35;;;6.30;99.90;;;;;;4801520;29;20551;-92
2021/12/01 11:52:00;;;;;;;0.63;0.43;;;6.40;99.90;;;;;;4813834;29;20443;-93
2021/12/01 11:54:28;;;;;;;3.13;0.52;;;6.40;99.90;;;;;;4790371;29;20042;-92
2021/12/01 11:56:59;;;;;;;0.57;0.40;;;6.40;99.90;;;;;;4817636;29;20038;-91
2021/12/01 11:59:38;;;;;;;0.40;0.28;;;6.40;99.90;;;;;;4817882;29;20594;-91
2021/12/01 12:02:26;;;;;;;0.88;0.40;;;6.40;99.90;;;;;;4817003;29;20042;-89
2021/12/01 12:04:55;;;;;;;0.73;0.38;;;6.50;99.90;;;;;;4793881;29;20038;-91
2021/12/01 12:07:31;;;;;;;0.98;0.52;;;6.50;99.90;;;;;;4787046;29;20649;-93
2021/12/01 12:10:06;;;;;;;0.68;0.50;;;6.40;99.90;;;;;;4785452;29;20546;-91
2021/12/01 12:13:00;;;;;;;1.52;0.73;;;6.50;99.90;;;;;;4810758;29;20046;-90
2021/12/01 12:15:55;;;;;;;0.65;0.40;;;6.50;99.90;;;;;;4799682;29;20048;-92
2021/12/01 12:18:38;;;;;;;1.35;0.75;;;6.50;99.90;;;;;;4777029;29;20046;-92
2021/12/01 12:21:14;;;;;;;2.38;0.40;;;6.50;99.90;;;;;;4785891;29;20043;-91
2021/12/01 12:23:40;;;;;;;0.30;0.30;;;6.60;99.90;;;;;;4811523;29;20060;-91
2021/12/01 12:26:09;;;;;;;0.88;0.40;;;6.60;99.90;;;;;;4816567;29;20038;-91
2021/12/01 12:28:44;;;;;;;0.77;0.43;;;6.60;99.90;;;;;;4818667;29;22281;-91
2021/12/01 12:31:19;;;;;;;1.35;0.43;;;6.60;99.90;;;;;;4800075;29;20045;-91
2021/12/01 12:33:50;;;;;;;0.75;0.30;;;6.60;99.90;;;;;;4803274;29;20041;-91
2021/12/01 12:36:39;;;;;;;0.80;0.30;;;6.70;99.90;;;;;;4803151;29;20038;-91
2021/12/01 12:39:12;;;;;;;0.75;0.40;;;6.70;99.90;;;;;;4811927;29;20046;-91
2021/12/01 12:42:11;;;;;;;0.45;0.30;;;6.60;99.90;;;;;;4813628;29;20096;-92
2021/12/01 12:44:51;;;;;;;0.55;0.30;;;6.70;99.90;;;;;;4783440;29;20039;-92
2021/12/01 12:47:22;;;;;;;0.65;0.40;;;6.70;99.90;;;;;;4769061;29;20038;-91
2021/12/01 12:49:55;;;;;;;0.65;0.30;;;6.70;99.90;;;;;;4810961;29;20045;-91
2021/12/01 12:52:29;;;;;;;0.63;0.40;;;6.70;99.90;;;;;;4797016;29;20042;-88
2021/12/01 12:54:57;;;;;;;0.35;0.20;;;6.80;99.90;;;;;;4799133;29;20061;-91
2021/12/01 12:57:24;;;;;;;;;;;6.80;99.90;;;;;;4816387;29;20080;-91
2021/12/01 13:00:09;;;;;;;0.53;0.30;;;6.80;99.90;;;;;;4816081;29;19921;-91
2021/12/01 13:02:38;;;;;;;0.40;0.28;;;6.90;99.90;;;;;;4791711;29;20518;-90
2021/12/01 13:05:47;;;;;;;0.38;0.20;;;6.90;99.90;;;;;;4816566;29;20035;-89
2021/12/01 13:08:29;;;;;;;0.57;0.25;;;6.90;99.90;;;;;;4786974;29;20113;-89
2021/12/01 13:11:09;;;;;;;0.20;0.20;;;6.90;99.90;;;;;;4816704;29;20099;-90
2021/12/01 13:13:37;;;;;;;0.63;0.32;;;7.00;99.90;;;;;;4806656;29;20039;-90
2021/12/01 13:16:23;;;;;;;0.65;0.30;;;7.00;99.90;;;;;;4807396;29;20069;-90
2021/12/01 13:18:51;;;;;;;0.80;0.30;;;7.00;99.90;;;;;;4809217;29;20182;-90
2021/12/01 13:21:26;;;;;;;0.63;0.35;;;7.00;99.90;;;;;;4808474;29;20495;-90
2021/12/01 13:23:59;;;;;;;0.43;0.28;;;7.00;99.90;;;;;;4819180;29;20098;-90
2021/12/01 13:26:41;;;;;;;0.38;0.30;;;7.00;99.90;;;;;;4772105;29;20038;-91